BXTK1: Spring River at Baxter Springs

                                SHEF ID:       BXTK1     SPRING R NR BAXTER SPRINGS, KS
STATION TYPE:

PRECIP STAGE RIV-FLOW BAT-LOAD
in ft cfs volt
Ccp-Rev Ccp-Rev Ccp-Rev Ccp-Rev
(America/Chicago)
02/17 00:00 0.00 4.12 1938 12.38
02/17 01:00 0.00 4.09 1878 12.37
02/17 02:00 0.00 4.06 1818 12.34
02/17 03:00 0.00 4.03 1759 12.33
02/17 04:00 0.00 4.01 1721 12.33
02/17 05:00 0.00 3.99 1682 12.31
02/17 06:00 0.00 3.97 1645 12.31
02/17 07:00 0.00 3.95 1607 12.31
02/17 08:00 0.00 3.93 1570 12.31
02/17 09:00 0.00 3.91 1534 12.47
02/17 10:00 0.00 3.88 1480 13.03
02/17 11:00 0.00 3.87 1462 13.09
02/17 12:00 0.00 3.85 1427 13.41
02/17 13:00 0.00 3.84 1409 13.85
02/17 14:00 0.00 3.82 1374 13.83
02/17 15:00 0.00 3.81 1357 13.78
02/17 16:00 0.00 3.80 1340 13.32
02/17 17:00 0.00 3.79 1323 12.57
02/17 18:00 0.00 3.79 1323 12.48
02/17 19:00 0.00 3.77 1289 12.46
02/17 20:00 0.00 3.76 1273 12.44
02/17 21:00 0.00 3.75 1256 12.43
02/17 22:00 0.00 3.73 1224 12.42
02/17 23:00 ---- ---- ---- 12.40
Data processed at Wed 18Feb2026 05:42 GMT

NOTICE: If you are parsing this page

Please convert to using our Data API. Starting early 2026 we will be migrating to: https://water.usace.army.mil with modern pages rendered in JavaScript. When this migration completes you will no longer be able to scrape this page! CWMSDataAPI (CDA)

Timeseries IDs (TSIDs)

TSIDs used from left to right in the data table
BAXT.Precip-Inc.Total.1Hour.1Hour.Ccp-Rev
BAXT.Stage.Inst.1Hour.0.Ccp-Rev
BAXT.Flow.Inst.1Hour.0.Ccp-Rev
BAXT.Volt-Battery Load.Inst.1Hour.0.Ccp-Rev

                            

All information presented herein is the property of the government of the United States of America and may be revised or deleted at any time without prior notice. Dissemination of this information without the expressed written consent of the Public Affairs Office, Tulsa District U.S. Army Corps of Engineers is strictly prohibited. These data are gathered electronically and, as presented, have NOT undergone any form of quality control. These data are NOT guaranteed to be valid or correct.